Bismarck (BIS/KBIS)

Map

Destinations

Information

Location
Bismarck, ND
Local Time
19:16 / 7:16 pm
GMT Time
00:16 / 12:16 am
Gates
10
No FAA reported delays
METAR KBIS 252352Z 01011KT 10SM OVC026 02/M03 A2990 RMK AO2 SLP143 T00221033 10022 20000 51003
TAF KBIS 252321Z 2600/2624 02013G21KT P6SM OVC020 FM260400 01011KT P6SM OVC015 FM261400 36011G19KT P6SM BKN020 FM262000 01011G19KT P6SM BKN040